Time;durP1;ratioP1;P1;durP2;ratioP2;P2;SDS_P1;SDS_P2;PMS_P1;PMS_P2;Temp;Humidity;BMP_temperature;BMP_pressure;BME280_temperature;BME280_humidity;BME280_pressure;Samples;Min_cycle;Max_cycle;Signal;HPM_P1;HPM_P2
2021/10/11 00:01:47;;;;;;;23.45;10.85;;;6.50;99.90;;;;;;5090730;28;20035;-77
2021/10/11 00:04:13;;;;;;;18.90;10.40;;;6.50;99.90;;;;;;5075113;28;20388;-77
2021/10/11 00:06:39;;;;;;;21.63;11.27;;;6.40;99.90;;;;;;5073765;28;20032;-76
2021/10/11 00:09:05;;;;;;;18.65;10.80;;;6.30;99.90;;;;;;5075264;28;20051;-76
2021/10/11 00:11:31;;;;;;;22.77;12.27;;;6.30;99.90;;;;;;5073847;28;20469;-76
2021/10/11 00:13:57;;;;;;;17.33;10.07;;;6.20;99.90;;;;;;5090576;28;20067;-77
2021/10/11 00:16:23;;;;;;;18.27;10.45;;;6.20;99.90;;;;;;5074762;28;20481;-77
2021/10/11 00:18:49;;;;;;;19.10;11.50;;;6.00;99.90;;;;;;5090426;28;20047;-76
2021/10/11 00:21:16;;;;;;;21.40;10.80;;;5.90;99.90;;;;;;5073910;28;20033;-76
2021/10/11 00:23:44;;;;;;;19.50;11.32;;;5.80;99.90;;;;;;5070110;28;20047;-76
2021/10/11 00:26:10;;;;;;;20.83;11.60;;;5.80;99.90;;;;;;5054789;28;20063;-77
2021/10/11 00:28:36;;;;;;;20.02;12.07;;;5.90;99.90;;;;;;5054513;28;20090;-76
2021/10/11 00:31:02;;;;;;;17.58;11.10;;;5.90;99.90;;;;;;5069938;28;20504;-76
2021/10/11 00:33:28;;;;;;;20.67;11.50;;;6.00;99.90;;;;;;5069952;28;20036;-77
2021/10/11 00:35:54;;;;;;;20.67;11.73;;;6.20;99.90;;;;;;5053390;28;20033;-76
2021/10/11 00:38:20;;;;;;;22.50;10.57;;;6.20;99.90;;;;;;5070001;28;20075;-76
2021/10/11 00:40:46;;;;;;;20.45;12.15;;;6.10;99.90;;;;;;5069940;28;20029;-77
2021/10/11 00:43:12;;;;;;;21.98;12.90;;;6.10;99.90;;;;;;5054131;28;20094;-77
2021/10/11 00:45:38;;;;;;;27.42;11.55;;;6.20;99.90;;;;;;5069603;28;20036;-76
2021/10/11 00:48:04;;;;;;;21.13;10.52;;;6.10;99.90;;;;;;5054377;28;20470;-76
2021/10/11 00:50:30;;;;;;;19.25;9.90;;;6.10;99.90;;;;;;5064072;28;20500;-76
2021/10/11 00:52:57;;;;;;;15.68;9.93;;;6.20;99.90;;;;;;5073197;28;20074;-76
2021/10/11 00:55:24;;;;;;;19.75;11.15;;;6.40;99.90;;;;;;5056243;28;20029;-77
2021/10/11 00:57:50;;;;;;;15.15;8.82;;;6.40;99.90;;;;;;5074055;28;20048;-77
2021/10/11 01:00:16;;;;;;;14.23;8.70;;;6.40;99.90;;;;;;5072737;28;20024;-77
2021/10/11 01:02:42;;;;;;;19.58;10.10;;;6.10;99.90;;;;;;5074182;28;20066;-76
2021/10/11 01:05:09;;;;;;;13.38;8.35;;;6.10;99.90;;;;;;5089905;28;20017;-77
2021/10/11 01:07:35;;;;;;;12.82;8.30;;;6.10;99.90;;;;;;5072664;28;20123;-76
2021/10/11 01:10:01;;;;;;;16.33;9.93;;;6.10;99.90;;;;;;5072776;28;20059;-77
2021/10/11 01:12:27;;;;;;;17.25;10.45;;;6.00;99.90;;;;;;5066697;28;20041;-77
2021/10/11 01:14:53;;;;;;;18.65;10.32;;;5.90;99.90;;;;;;5053900;28;20537;-76
2021/10/11 01:17:19;;;;;;;16.15;9.60;;;5.90;99.90;;;;;;5068820;28;20033;-77
2021/10/11 01:19:50;;;;;;;18.77;9.38;;;5.80;99.90;;;;;;5069072;28;20025;-77
2021/10/11 01:22:18;;;;;;;16.95;8.95;;;5.70;99.90;;;;;;5053833;28;20025;-77
2021/10/11 01:24:44;;;;;;;14.93;9.48;;;5.70;99.90;;;;;;5069014;28;20082;-77
2021/10/11 01:27:10;;;;;;;22.33;10.52;;;5.50;99.90;;;;;;5053433;28;20032;-77
2021/10/11 01:29:36;;;;;;;19.45;10.18;;;5.20;99.90;;;;;;5069029;28;20493;-76
2021/10/11 01:32:02;;;;;;;18.88;9.98;;;5.30;99.90;;;;;;5068893;28;20041;-76
2021/10/11 01:34:28;;;;;;;17.25;9.85;;;5.40;99.90;;;;;;5052713;28;20037;-76
2021/10/11 01:36:53;;;;;;;21.15;10.65;;;5.30;99.90;;;;;;5053404;28;20033;-77
2021/10/11 01:39:19;;;;;;;17.55;10.02;;;5.30;99.90;;;;;;5053192;28;20037;-77
2021/10/11 01:41:45;;;;;;;16.40;10.30;;;5.30;99.90;;;;;;5069039;28;20033;-77
2021/10/11 01:44:10;;;;;;;19.58;10.20;;;5.40;99.90;;;;;;5071630;28;20477;-77
2021/10/11 01:46:36;;;;;;;22.10;10.00;;;5.60;99.90;;;;;;5073119;28;20040;-77
2021/10/11 01:49:03;;;;;;;16.80;10.05;;;5.70;99.90;;;;;;5088767;28;20062;-77
2021/10/11 01:51:30;;;;;;;16.83;10.35;;;5.70;99.90;;;;;;5071685;28;20062;-76
2021/10/11 01:53:56;;;;;;;16.38;9.90;;;5.80;99.90;;;;;;5088822;28;20033;-76
2021/10/11 01:56:21;;;;;;;18.13;9.82;;;5.70;99.90;;;;;;5071578;28;20028;-77
2021/10/11 01:58:47;;;;;;;19.13;9.32;;;5.70;99.90;;;;;;5072912;28;20028;-76
2021/10/11 02:01:13;;;;;;;18.55;9.65;;;5.50;99.90;;;;;;5073161;28;20546;-76
2021/10/11 02:03:39;;;;;;;17.02;9.43;;;5.30;99.90;;;;;;5071521;28;20081;-77
2021/10/11 02:06:05;;;;;;;17.48;9.50;;;5.40;99.90;;;;;;5071718;28;20127;-77
2021/10/11 02:08:31;;;;;;;17.15;10.30;;;5.40;99.90;;;;;;5072909;28;20029;-77
2021/10/11 02:10:57;;;;;;;17.05;9.70;;;5.50;99.90;;;;;;5072829;28;20033;-78
2021/10/11 02:13:23;;;;;;;18.02;10.15;;;5.50;99.90;;;;;;5071055;28;20024;-78
2021/10/11 02:15:49;;;;;;;16.33;9.25;;;5.50;99.90;;;;;;5088307;28;20625;-78
2021/10/11 02:18:14;;;;;;;26.70;11.07;;;5.50;99.90;;;;;;5071326;28;20082;-78
2021/10/11 02:20:41;;;;;;;21.65;11.82;;;5.50;99.90;;;;;;5087971;28;20031;-78
2021/10/11 02:23:06;;;;;;;20.13;11.43;;;5.60;99.90;;;;;;5088495;28;20028;-77
2021/10/11 02:25:32;;;;;;;20.33;11.88;;;5.30;99.90;;;;;;5072158;28;20029;-76
2021/10/11 02:27:58;;;;;;;22.20;12.30;;;5.30;99.90;;;;;;5088080;28;20107;-77
2021/10/11 02:30:24;;;;;;;19.45;11.38;;;5.40;99.90;;;;;;5070730;28;20518;-77
2021/10/11 02:32:50;;;;;;;20.08;11.50;;;5.50;99.90;;;;;;5047854;28;20026;-77
2021/10/11 02:35:16;;;;;;;19.15;10.82;;;5.60;99.90;;;;;;5032550;28;20034;-77
2021/10/11 02:37:43;;;;;;;19.13;11.02;;;5.70;99.90;;;;;;5031512;28;20066;-77
2021/10/11 02:40:10;;;;;;;17.13;10.65;;;5.70;99.90;;;;;;5031453;28;20030;-77
2021/10/11 02:42:36;;;;;;;23.55;13.73;;;5.80;99.90;;;;;;5031200;28;20116;-77
2021/10/11 02:45:03;;;;;;;19.27;11.40;;;5.90;99.90;;;;;;5031358;28;20037;-77
2021/10/11 02:47:32;;;;;;;22.90;13.00;;;5.90;99.90;;;;;;5031386;28;20387;-77
2021/10/11 02:49:57;;;;;;;27.40;13.43;;;6.10;99.90;;;;;;5031114;28;20039;-77
2021/10/11 02:52:27;;;;;;;26.02;12.55;;;6.20;99.90;;;;;;5031450;28;20033;-77
2021/10/11 02:54:53;;;;;;;18.65;10.35;;;6.10;99.90;;;;;;5032921;28;20026;-77
2021/10/11 02:57:19;;;;;;;18.25;10.07;;;5.80;99.90;;;;;;5031227;28;20433;-77
2021/10/11 02:59:45;;;;;;;20.92;11.15;;;5.70;99.90;;;;;;5031065;28;20038;-77
2021/10/11 03:02:11;;;;;;;22.80;12.25;;;5.30;99.90;;;;;;5032025;28;20033;-77
2021/10/11 03:04:37;;;;;;;23.60;14.55;;;5.20;99.90;;;;;;5032016;28;20045;-76
2021/10/11 03:07:02;;;;;;;25.52;14.80;;;5.30;99.90;;;;;;5031977;28;20048;-77
2021/10/11 03:09:28;;;;;;;28.02;15.73;;;5.40;99.90;;;;;;5031861;28;20030;-77
2021/10/11 03:11:54;;;;;;;27.20;13.77;;;5.50;99.90;;;;;;5032356;28;20052;-77
2021/10/11 03:14:20;;;;;;;18.23;11.95;;;5.50;99.90;;;;;;5032325;28;20390;-77
2021/10/11 03:16:45;;;;;;;22.63;14.13;;;5.60;99.90;;;;;;5051293;28;20461;-77
2021/10/11 03:19:11;;;;;;;26.35;15.05;;;5.70;99.90;;;;;;5067036;28;20044;-76
2021/10/11 03:21:37;;;;;;;21.85;12.60;;;5.90;99.90;;;;;;5052104;28;20037;-77
2021/10/11 03:24:02;;;;;;;23.98;13.23;;;6.00;99.90;;;;;;5051971;28;20147;-77
2021/10/11 03:26:28;;;;;;;20.13;12.15;;;5.90;99.90;;;;;;5052908;28;20036;-77
2021/10/11 03:28:54;;;;;;;21.55;13.20;;;6.00;99.90;;;;;;5071810;28;20058;-77
2021/10/11 03:31:20;;;;;;;23.08;12.77;;;6.00;99.90;;;;;;5087575;28;20070;-77
2021/10/11 03:33:45;;;;;;;22.77;12.05;;;5.90;99.90;;;;;;5072006;28;20063;-77
2021/10/11 03:36:11;;;;;;;21.42;10.35;;;5.90;99.90;;;;;;5071908;28;20055;-76
2021/10/11 03:38:37;;;;;;;18.83;10.40;;;5.70;99.90;;;;;;5087320;28;20033;-77
2021/10/11 03:41:03;;;;;;;17.23;10.05;;;5.20;99.90;;;;;;5070380;28;20041;-78
2021/10/11 03:43:29;;;;;;;18.77;9.55;;;5.30;99.90;;;;;;5071760;28;20066;-77
2021/10/11 03:45:58;;;;;;;20.00;10.18;;;5.20;99.90;;;;;;5071859;28;20032;-76
2021/10/11 03:48:24;;;;;;;17.90;10.05;;;5.20;99.90;;;;;;5070516;28;20427;-76
2021/10/11 03:50:50;;;;;;;17.05;9.50;;;4.90;99.90;;;;;;5071508;28;20111;-77
2021/10/11 03:53:16;;;;;;;20.60;11.18;;;4.70;99.90;;;;;;5070505;28;20385;-76
2021/10/11 03:55:42;;;;;;;19.73;11.52;;;4.70;99.90;;;;;;5071478;28;20056;-76
2021/10/11 03:58:09;;;;;;;26.52;13.32;;;4.70;99.90;;;;;;5073440;28;20032;-76
2021/10/11 04:00:36;;;;;;;23.55;12.13;;;4.80;99.90;;;;;;5075422;28;20076;-76
2021/10/11 04:03:05;;;;;;;28.55;13.32;;;4.90;99.90;;;;;;5073935;28;20083;-76
2021/10/11 04:05:31;;;;;;;24.95;12.52;;;5.00;99.90;;;;;;5075135;28;20082;-77
2021/10/11 04:08:02;;;;;;;25.70;14.18;;;5.00;99.90;;;;;;5075399;28;20081;-77
2021/10/11 04:10:31;;;;;;;23.38;13.05;;;5.10;99.90;;;;;;5090837;28;20074;-78
2021/10/11 04:13:04;;;;;;;21.15;10.88;;;5.00;99.90;;;;;;5056970;28;20048;-77
2021/10/11 04:15:31;;;;;;;24.00;13.85;;;4.90;99.90;;;;;;5055061;28;20039;-77
2021/10/11 04:17:57;;;;;;;24.00;12.95;;;4.90;99.90;;;;;;5054695;28;20071;-77
2021/10/11 04:20:23;;;;;;;25.98;13.40;;;4.90;99.90;;;;;;5054842;28;20033;-77
2021/10/11 04:22:50;;;;;;;31.75;15.05;;;4.60;99.90;;;;;;5054846;28;20442;-77
2021/10/11 04:25:16;;;;;;;47.25;16.42;;;4.40;99.90;;;;;;5054979;28;20043;-77
2021/10/11 04:27:41;;;;;;;79.43;18.83;;;4.60;99.90;;;;;;5054557;28;20041;-76
2021/10/11 04:30:09;;;;;;;77.68;19.77;;;4.60;99.90;;;;;;5054917;28;20029;-77
2021/10/11 04:32:34;;;;;;;89.72;20.30;;;4.70;99.90;;;;;;5054478;28;20029;-77
2021/10/11 04:35:00;;;;;;;69.57;20.30;;;4.50;99.90;;;;;;5054659;28;20041;-77
2021/10/11 04:37:26;;;;;;;73.55;21.05;;;4.50;99.90;;;;;;5054770;28;20040;-77
2021/10/11 04:39:53;;;;;;;113.20;23.65;;;4.50;99.90;;;;;;5054549;28;20031;-77
2021/10/11 04:42:19;;;;;;;81.20;22.65;;;4.50;99.90;;;;;;5054482;28;20037;-77
2021/10/11 04:44:46;;;;;;;78.53;22.88;;;4.70;99.90;;;;;;5054293;28;20108;-77
2021/10/11 04:47:11;;;;;;;65.05;21.55;;;4.70;99.90;;;;;;5069905;28;20037;-76
2021/10/11 04:49:37;;;;;;;56.80;20.85;;;4.60;99.90;;;;;;5054206;28;20163;-77
2021/10/11 04:52:03;;;;;;;56.13;22.40;;;4.50;99.90;;;;;;5054427;28;20068;-78
2021/10/11 04:54:29;;;;;;;60.10;21.08;;;4.70;99.90;;;;;;5054383;28;20040;-77
2021/10/11 04:56:55;;;;;;;76.93;23.85;;;4.50;99.90;;;;;;5054116;28;20033;-78
2021/10/11 04:59:21;;;;;;;53.83;23.25;;;4.50;99.90;;;;;;5054098;28;20035;-77
2021/10/11 05:01:47;;;;;;;54.95;22.60;;;4.50;99.90;;;;;;5054023;28;20033;-77
2021/10/11 05:04:13;;;;;;;74.93;22.70;;;4.70;99.90;;;;;;5054173;28;20040;-77
2021/10/11 05:06:38;;;;;;;82.13;27.30;;;4.80;99.90;;;;;;5053941;28;20037;-78
2021/10/11 05:09:04;;;;;;;108.97;22.67;;;4.90;99.90;;;;;;5053342;28;20031;-77
2021/10/11 05:11:30;;;;;;;133.98;22.38;;;4.60;99.90;;;;;;5053701;28;20068;-77
2021/10/11 05:13:56;;;;;;;70.97;22.15;;;4.80;99.90;;;;;;5054082;28;20053;-78
2021/10/11 05:16:23;;;;;;;37.55;20.80;;;4.70;99.90;;;;;;5053887;28;20052;-78
2021/10/11 05:18:49;;;;;;;40.47;19.95;;;4.80;99.90;;;;;;5053443;28;20045;-78
2021/10/11 05:21:15;;;;;;;60.22;20.20;;;4.80;99.90;;;;;;5053916;28;20055;-78
2021/10/11 05:23:41;;;;;;;53.33;19.90;;;4.80;99.90;;;;;;5053875;28;20029;-78
2021/10/11 05:26:07;;;;;;;92.22;36.10;;;4.70;99.90;;;;;;5053476;28;20035;-78
2021/10/11 05:28:32;;;;;;;51.83;26.15;;;4.70;99.90;;;;;;5053316;28;20064;-78
2021/10/11 05:30:58;;;;;;;33.78;18.48;;;4.80;99.90;;;;;;5049765;28;20041;-76
2021/10/11 05:33:24;;;;;;;40.42;23.30;;;4.80;99.90;;;;;;5043741;28;20441;-71
2021/10/11 05:35:53;;;;;;;34.63;18.95;;;4.90;99.90;;;;;;5068908;28;20075;-74
2021/10/11 05:38:20;;;;;;;30.90;17.73;;;4.80;99.90;;;;;;5068015;28;20397;-69
2021/10/11 05:40:47;;;;;;;33.10;17.10;;;4.70;99.90;;;;;;5067568;28;20025;-70
2021/10/11 05:43:12;;;;;;;27.58;17.38;;;4.50;99.90;;;;;;5053403;28;20033;-69
2021/10/11 05:45:38;;;;;;;28.95;17.83;;;4.50;99.90;;;;;;5052719;28;20661;-72
2021/10/11 05:48:04;;;;;;;27.50;16.33;;;4.60;99.90;;;;;;5053050;28;20033;-73
2021/10/11 05:50:30;;;;;;;29.67;16.42;;;4.70;99.90;;;;;;5052938;28;20021;-75
2021/10/11 05:52:58;;;;;;;26.38;16.30;;;4.70;99.90;;;;;;5052905;28;20032;-72
2021/10/11 05:55:24;;;;;;;28.77;16.80;;;4.70;99.90;;;;;;5053298;28;20057;-73
2021/10/11 05:57:50;;;;;;;32.13;18.05;;;4.90;99.90;;;;;;5052760;28;20381;-73
2021/10/11 06:00:16;;;;;;;27.20;16.77;;;5.00;99.90;;;;;;5052586;28;20551;-74
2021/10/11 06:02:41;;;;;;;28.52;16.33;;;4.90;99.90;;;;;;5070390;28;20122;-70
2021/10/11 06:05:07;;;;;;;33.38;17.73;;;4.90;99.90;;;;;;5072911;28;20133;-71
2021/10/11 06:07:33;;;;;;;26.38;17.42;;;4.70;99.90;;;;;;5072784;28;20036;-69
2021/10/11 06:09:59;;;;;;;24.45;15.65;;;4.60;99.90;;;;;;5072656;28;20373;-71
2021/10/11 06:12:25;;;;;;;26.30;16.27;;;4.50;99.90;;;;;;5072748;28;20032;-71
2021/10/11 06:14:52;;;;;;;57.88;26.27;;;4.60;99.90;;;;;;5072394;28;20103;-71
2021/10/11 06:17:19;;;;;;;52.22;24.05;;;4.60;99.90;;;;;;5072245;28;20481;-71
2021/10/11 06:19:44;;;;;;;49.85;23.48;;;4.70;99.90;;;;;;5072598;28;20039;-71
2021/10/11 06:22:10;;;;;;;49.08;22.60;;;4.80;99.90;;;;;;5088217;28;20024;-71
2021/10/11 06:24:36;;;;;;;43.80;21.90;;;4.80;99.90;;;;;;5072764;28;20524;-68
2021/10/11 06:27:03;;;;;;;41.15;20.67;;;4.80;99.90;;;;;;5088191;28;20497;-70
2021/10/11 06:29:30;;;;;;;38.05;19.67;;;4.70;99.90;;;;;;5072363;28;20496;-73
2021/10/11 06:31:56;;;;;;;33.35;17.95;;;4.70;99.90;;;;;;5060715;28;20392;-73
2021/10/11 06:34:22;;;;;;;31.48;18.02;;;4.80;99.90;;;;;;5052299;28;20056;-66
2021/10/11 06:36:49;;;;;;;35.78;19.10;;;4.90;99.90;;;;;;5051874;28;20115;-74
2021/10/11 06:39:15;;;;;;;32.95;18.25;;;4.90;99.90;;;;;;5056233;28;20030;-69
2021/10/11 06:41:41;;;;;;;33.97;17.88;;;5.00;99.90;;;;;;5032048;28;20040;-71
2021/10/11 06:44:06;;;;;;;36.70;18.60;;;5.20;99.90;;;;;;5031509;28;20099;-72
2021/10/11 06:46:32;;;;;;;33.15;17.02;;;5.20;99.90;;;;;;5030777;28;20080;-72
2021/10/11 06:48:58;;;;;;;31.35;16.33;;;5.40;99.90;;;;;;5031917;28;20099;-71
2021/10/11 06:51:24;;;;;;;29.73;16.85;;;5.60;99.90;;;;;;5032143;28;20036;-71
2021/10/11 06:53:50;;;;;;;35.83;16.83;;;5.80;99.90;;;;;;5032335;28;20111;-71
2021/10/11 06:56:16;;;;;;;28.95;15.38;;;5.90;99.90;;;;;;5047789;28;20038;-71
2021/10/11 06:58:41;;;;;;;30.98;14.02;;;5.90;99.90;;;;;;5031477;28;20034;-71
2021/10/11 07:01:07;;;;;;;27.73;15.45;;;6.00;99.90;;;;;;5032018;28;20175;-71
2021/10/11 07:03:33;;;;;;;25.17;14.55;;;6.20;99.90;;;;;;5047424;28;20482;-71
2021/10/11 07:06:04;;;;;;;24.20;13.95;;;6.20;99.90;;;;;;5032139;28;20029;-71
2021/10/11 07:08:31;;;;;;;;;;;6.20;99.90;;;;;;5047427;28;20030;-71
2021/10/11 07:10:56;;;;;;;22.02;13.27;;;6.30;99.90;;;;;;5032086;28;19967;-71
2021/10/11 07:13:23;;;;;;;24.15;13.95;;;6.30;99.90;;;;;;5030765;28;20057;-71
2021/10/11 07:15:51;;;;;;;23.90;13.80;;;6.30;99.90;;;;;;5032041;28;20546;-71
2021/10/11 07:18:17;;;;;;;27.42;14.45;;;6.40;99.90;;;;;;5031672;28;20041;-71
2021/10/11 07:20:44;;;;;;;26.27;14.90;;;6.30;99.90;;;;;;5032127;28;20029;-71
2021/10/11 07:23:12;;;;;;;25.23;14.63;;;6.20;99.90;;;;;;5031908;28;20022;-71
2021/10/11 07:25:42;;;;;;;28.90;15.10;;;6.40;99.90;;;;;;5031643;28;20038;-71
2021/10/11 07:28:08;;;;;;;26.90;16.30;;;6.40;99.90;;;;;;5032003;28;20083;-71
2021/10/11 07:30:34;;;;;;;28.38;15.20;;;6.50;99.90;;;;;;5047229;28;20037;-71
2021/10/11 07:33:01;;;;;;;27.17;16.30;;;6.40;99.90;;;;;;5047124;28;20496;-70
2021/10/11 07:35:27;;;;;;;26.83;14.18;;;6.20;99.90;;;;;;5055587;28;20486;-72
2021/10/11 07:37:53;;;;;;;29.92;15.57;;;6.40;99.90;;;;;;5055635;28;20466;-71
2021/10/11 07:40:21;;;;;;;28.27;15.32;;;6.50;99.90;;;;;;5071014;28;20501;-71
2021/10/11 07:42:47;;;;;;;28.15;15.15;;;6.60;99.90;;;;;;5055674;28;20037;-71
2021/10/11 07:45:13;;;;;;;28.10;15.88;;;6.60;99.90;;;;;;5055394;28;20036;-69
2021/10/11 07:47:39;;;;;;;29.70;15.15;;;6.70;99.90;;;;;;5052471;28;20087;-71
2021/10/11 07:50:05;;;;;;;24.02;13.13;;;6.80;99.90;;;;;;5053990;28;20108;-69
2021/10/11 07:52:31;;;;;;;25.08;14.70;;;7.10;99.90;;;;;;5054576;28;20040;-75
2021/10/11 07:54:57;;;;;;;26.30;13.32;;;7.20;99.90;;;;;;5055073;28;20557;-65
2021/10/11 07:57:23;;;;;;;32.05;14.30;;;7.40;99.90;;;;;;5045155;28;20541;-69
2021/10/11 07:59:48;;;;;;;23.17;14.65;;;7.60;99.90;;;;;;5034772;28;20064;-69
2021/10/11 08:02:15;;;;;;;28.35;14.45;;;7.90;99.90;;;;;;5052341;28;20047;-77
2021/10/11 08:04:41;;;;;;;24.55;14.02;;;7.90;99.90;;;;;;5054926;28;20037;-73
2021/10/11 08:07:07;;;;;;;28.55;14.68;;;7.90;99.90;;;;;;5054759;28;20032;-73
2021/10/11 08:09:33;;;;;;;25.27;14.05;;;7.60;99.90;;;;;;5054978;28;20124;-73
2021/10/11 08:11:58;;;;;;;25.65;13.95;;;7.50;99.90;;;;;;5054882;28;20127;-76
2021/10/11 08:14:24;;;;;;;25.75;13.45;;;7.50;99.90;;;;;;5053805;28;20100;-73
2021/10/11 08:16:50;;;;;;;30.95;16.17;;;7.30;99.90;;;;;;5054862;28;20491;-72
2021/10/11 08:19:16;;;;;;;31.30;16.05;;;7.50;99.90;;;;;;5053250;28;20041;-70
2021/10/11 08:21:41;;;;;;;27.52;16.20;;;7.70;99.90;;;;;;5053536;28;20033;-72
2021/10/11 08:24:07;;;;;;;35.17;15.20;;;7.70;99.90;;;;;;5054670;28;20473;-70
2021/10/11 08:26:35;;;;;;;23.80;13.95;;;7.60;99.90;;;;;;5054600;28;20048;-71
2021/10/11 08:29:02;;;;;;;26.33;14.73;;;7.70;99.90;;;;;;5052908;28;20393;-70
2021/10/11 08:31:28;;;;;;;28.23;15.48;;;7.60;99.90;;;;;;5064648;28;20563;-72
2021/10/11 08:33:57;;;;;;;28.10;16.25;;;7.90;99.90;;;;;;5074629;28;20032;-73
2021/10/11 08:36:23;;;;;;;27.33;15.50;;;7.90;99.90;;;;;;5074403;28;20036;-71
2021/10/11 08:38:48;;;;;;;30.25;15.35;;;8.20;99.90;;;;;;5074176;28;20100;-76
2021/10/11 08:41:15;;;;;;;29.95;14.18;;;8.30;99.90;;;;;;5090107;28;20082;-74
2021/10/11 08:43:41;;;;;;;27.90;16.40;;;8.20;99.90;;;;;;5073774;28;20029;-74
2021/10/11 08:46:07;;;;;;;28.85;16.15;;;8.30;99.90;;;;;;5072222;28;20034;-76
2021/10/11 08:48:34;;;;;;;24.80;14.32;;;8.10;99.90;;;;;;5089722;28;20086;-73
2021/10/11 08:51:04;;;;;;;27.25;15.10;;;8.10;99.90;;;;;;5073696;28;20105;-74
2021/10/11 08:53:29;;;;;;;28.00;14.75;;;8.10;99.90;;;;;;5089636;28;20067;-76
2021/10/11 08:55:55;;;;;;;28.05;15.85;;;7.90;99.90;;;;;;5073869;28;20064;-75
2021/10/11 08:58:21;;;;;;;26.35;16.95;;;7.90;99.90;;;;;;5089855;28;20025;-78
2021/10/11 09:00:47;;;;;;;27.40;15.45;;;8.00;99.90;;;;;;5068410;28;20068;-79
2021/10/11 09:03:18;;;;;;;28.65;16.67;;;8.20;99.90;;;;;;5053903;28;20068;-77
2021/10/11 09:05:47;;;;;;;26.83;16.63;;;8.40;99.90;;;;;;5054038;28;20040;-75
2021/10/11 09:08:16;;;;;;;31.50;16.10;;;8.40;99.90;;;;;;5068868;28;20059;-73
2021/10/11 09:11:02;;;;;;;29.23;17.00;;;8.50;99.90;;;;;;5053654;28;20040;-73
2021/10/11 09:13:39;;;;;;;37.35;17.65;;;8.80;99.90;;;;;;5067695;28;20036;-68
2021/10/11 09:16:34;;;;;;;28.52;15.85;;;9.00;99.90;;;;;;5053383;28;20045;-74
2021/10/11 09:19:12;;;;;;;34.25;17.67;;;9.20;99.90;;;;;;5053145;28;20053;-72
2021/10/11 09:21:38;;;;;;;32.35;17.25;;;9.40;99.90;;;;;;5052331;28;20041;-72
2021/10/11 09:24:19;;;;;;;31.02;16.77;;;9.50;99.90;;;;;;5068620;28;20027;-71
2021/10/11 09:26:55;;;;;;;28.55;18.27;;;9.70;99.90;;;;;;5053572;28;20083;-73
2021/10/11 09:29:37;;;;;;;25.83;15.82;;;9.70;99.90;;;;;;5068780;28;20095;-71
2021/10/11 09:32:08;;;;;;;26.90;15.68;;;9.70;99.90;;;;;;5084997;28;20024;-70
2021/10/11 09:34:35;;;;;;;32.33;15.93;;;10.00;99.90;;;;;;5073323;28;20519;-72
2021/10/11 09:37:11;;;;;;;28.63;16.02;;;10.10;99.90;;;;;;5088588;28;20443;-75
2021/10/11 09:39:39;;;;;;;27.88;17.00;;;9.90;99.90;;;;;;5073162;28;20089;-69
2021/10/11 09:42:14;;;;;;;25.65;15.27;;;9.90;99.90;;;;;;5073257;28;20075;-73
2021/10/11 09:44:51;;;;;;;33.63;15.50;;;9.90;99.90;;;;;;5071829;28;20036;-74
2021/10/11 09:47:49;;;;;;;28.38;15.05;;;10.10;99.90;;;;;;5088474;28;20064;-73
2021/10/11 09:50:17;;;;;;;29.75;14.52;;;10.30;99.90;;;;;;5085477;28;20041;-74
2021/10/11 09:52:44;;;;;;;29.58;15.43;;;10.50;99.90;;;;;;5088389;28;20087;-72
2021/10/11 09:55:13;;;;;;;27.58;15.40;;;10.50;99.90;;;;;;5087824;28;20037;-72
2021/10/11 09:57:39;;;;;;;23.27;14.27;;;10.50;99.90;;;;;;5070538;28;20037;-73
2021/10/11 10:00:11;;;;;;;27.80;14.55;;;10.60;99.90;;;;;;5052772;28;20037;-73
2021/10/11 10:02:43;;;;;;;25.48;14.30;;;10.70;99.90;;;;;;5031601;28;20076;-73
2021/10/11 10:05:33;;;;;;;34.65;15.32;;;10.60;99.90;;;;;;5032676;28;20049;-73
2021/10/11 10:08:08;;;;;;;29.17;15.13;;;10.60;99.90;;;;;;5040684;28;20565;-73
2021/10/11 10:10:36;;;;;;;33.45;15.00;;;10.60;99.90;;;;;;5067838;28;20033;-74
2021/10/11 10:13:18;;;;;;;26.90;15.63;;;10.50;99.90;;;;;;5068120;28;20033;-74
2021/10/11 10:15:45;;;;;;;24.08;14.38;;;10.20;99.90;;;;;;5067417;28;20504;-74
2021/10/11 10:18:17;;;;;;;25.73;14.55;;;10.40;99.90;;;;;;5045483;28;20559;-73
2021/10/11 10:20:57;;;;;;;28.42;15.30;;;10.60;99.90;;;;;;5045953;28;20068;-73
2021/10/11 10:23:31;;;;;;;22.27;13.55;;;10.70;99.90;;;;;;5048267;28;20112;-73
2021/10/11 10:26:04;;;;;;;29.35;15.35;;;10.70;99.90;;;;;;5064866;28;20041;-74
2021/10/11 10:28:50;;;;;;;26.40;14.95;;;10.70;99.90;;;;;;5045952;28;20025;-73
2021/10/11 10:31:37;;;;;;;25.48;14.43;;;10.70;99.90;;;;;;5049383;28;20036;-73
2021/10/11 10:34:23;;;;;;;22.63;14.65;;;10.70;99.90;;;;;;5050353;28;20029;-73
2021/10/11 10:37:10;;;;;;;26.25;14.20;;;10.70;99.90;;;;;;5058033;28;20032;-73
2021/10/11 10:39:44;;;;;;;25.15;14.88;;;10.50;99.90;;;;;;5066630;28;20029;-73
2021/10/11 10:42:26;;;;;;;32.53;15.35;;;10.60;99.90;;;;;;5048333;28;20082;-73
2021/10/11 10:44:54;;;;;;;28.02;15.10;;;10.70;99.90;;;;;;5063708;28;20032;-74
2021/10/11 10:47:35;;;;;;;30.23;14.38;;;10.60;99.90;;;;;;5066190;28;20115;-74
2021/10/11 10:50:03;;;;;;;26.13;15.65;;;10.70;99.90;;;;;;5066103;28;20385;-72
2021/10/11 10:52:29;;;;;;;29.27;15.15;;;10.70;99.90;;;;;;5058401;28;20033;-74
2021/10/11 10:54:59;;;;;;;31.48;16.02;;;10.70;99.90;;;;;;5050868;28;20021;-73
2021/10/11 10:57:28;;;;;;;27.10;14.98;;;10.70;99.90;;;;;;5051175;28;20025;-74
2021/10/11 11:00:10;;;;;;;26.40;15.20;;;10.80;99.90;;;;;;5050911;28;20404;-75
2021/10/11 11:02:35;;;;;;;;;;;10.70;99.90;;;;;;5048099;28;20028;-74
2021/10/11 11:05:05;;;;;;;24.95;14.90;;;10.90;99.90;;;;;;5051006;28;19913;-81
2021/10/11 11:07:37;;;;;;;29.58;15.65;;;10.70;99.90;;;;;;5062124;28;20040;-71
2021/10/11 11:10:15;;;;;;;25.75;15.75;;;10.50;99.90;;;;;;5056278;28;20061;-75
2021/10/11 11:12:56;;;;;;;28.02;15.95;;;10.60;99.90;;;;;;5070877;28;20033;-76
2021/10/11 11:15:27;;;;;;;24.80;14.55;;;10.70;99.90;;;;;;5071753;28;20068;-76
2021/10/11 11:17:56;;;;;;;29.63;16.50;;;10.70;99.90;;;;;;5054289;28;20080;-88
2021/10/11 11:20:29;;;;;;;29.77;18.13;;;10.80;99.90;;;;;;5071631;28;20367;-75
2021/10/11 11:23:01;;;;;;;29.50;17.35;;;10.60;99.90;;;;;;5071259;28;20033;-78
2021/10/11 11:25:34;;;;;;;29.55;16.98;;;10.80;99.90;;;;;;5071420;28;20051;-79
2021/10/11 11:28:05;;;;;;;28.20;17.67;;;10.80;99.90;;;;;;5055623;28;20090;-80
2021/10/11 11:30:31;;;;;;;28.42;15.85;;;11.00;99.90;;;;;;5056115;28;20032;-79
2021/10/11 11:33:14;;;;;;;34.85;16.52;;;10.70;99.90;;;;;;5071239;28;20116;-78
2021/10/11 11:35:50;;;;;;;29.88;16.23;;;10.90;99.90;;;;;;5055894;28;20075;-79
2021/10/11 11:38:19;;;;;;;30.67;16.70;;;11.00;99.90;;;;;;5054712;28;20021;-77
2021/10/11 11:40:53;;;;;;;28.27;15.95;;;11.00;99.90;;;;;;5055842;28;20056;-78
2021/10/11 11:43:20;;;;;;;31.92;16.00;;;11.00;99.90;;;;;;5071001;28;20030;-78
2021/10/11 11:45:50;;;;;;;26.85;16.13;;;10.70;99.90;;;;;;5071005;28;20111;-79
2021/10/11 11:48:41;;;;;;;32.92;17.10;;;10.80;99.90;;;;;;5070916;28;20040;-81
2021/10/11 11:51:16;;;;;;;30.27;18.38;;;10.90;99.90;;;;;;5056605;28;20163;-77
2021/10/11 11:53:46;;;;;;;28.77;17.08;;;10.70;99.90;;;;;;5055456;28;20108;-78
2021/10/11 11:56:13;;;;;;;33.83;19.75;;;10.80;99.90;;;;;;5070556;28;20111;-68
2021/10/11 11:58:43;;;;;;;40.75;23.52;;;10.70;99.90;;;;;;5055142;28;20033;-67
2021/10/11 12:01:14;;;;;;;29.15;17.65;;;10.80;99.90;;;;;;5055391;28;20025;-69
2021/10/11 12:03:54;;;;;;;31.50;18.15;;;10.80;99.90;;;;;;5070413;28;20036;-71
2021/10/11 12:06:29;;;;;;;28.67;17.98;;;10.80;99.90;;;;;;5070168;28;20480;-72
2021/10/11 12:08:55;;;;;;;31.67;17.58;;;10.70;99.90;;;;;;5070171;28;20044;-75
2021/10/11 12:11:21;;;;;;;35.42;18.38;;;10.70;99.90;;;;;;5070302;28;20033;-69
2021/10/11 12:13:47;;;;;;;30.77;17.40;;;10.80;99.90;;;;;;5070410;28;20108;-72
2021/10/11 12:16:19;;;;;;;30.05;18.13;;;10.90;99.90;;;;;;5053477;28;20033;-67
2021/10/11 12:18:47;;;;;;;33.25;19.30;;;10.90;99.90;;;;;;5053068;28;20399;-71
2021/10/11 12:21:38;;;;;;;29.40;18.35;;;11.00;99.90;;;;;;5054690;28;20103;-69
2021/10/11 12:24:31;;;;;;;36.40;19.05;;;11.00;99.90;;;;;;5053509;28;20190;-68
2021/10/11 12:27:01;;;;;;;34.40;18.42;;;11.10;99.90;;;;;;5069894;28;20433;-70
2021/10/11 12:29:31;;;;;;;33.70;19.80;;;11.20;99.90;;;;;;5070094;28;20512;-70
2021/10/11 12:32:05;;;;;;;29.98;18.67;;;11.30;99.90;;;;;;5054713;28;20033;-65
2021/10/11 12:34:45;;;;;;;32.55;18.65;;;11.10;99.90;;;;;;5054851;28;20547;-66
2021/10/11 12:37:13;;;;;;;28.63;18.85;;;11.10;99.90;;;;;;5069475;28;20037;-74
2021/10/11 12:39:41;;;;;;;34.40;19.75;;;11.10;99.90;;;;;;5054409;28;20037;-66
2021/10/11 12:42:19;;;;;;;35.03;20.55;;;10.90;99.90;;;;;;5054265;28;20032;-71